Millseat, Kentucky
Current Conditions -  °F | °C
As of 4:55 AM on Friday 28 Nov 2014 (Local Time) from KDWU Reporting Station
Overcast Overcast  
Wind Chill: 23°   Ceiling: 4500
Heat Index: 30°   Visibility: 10mi
Dew Point: 18°   Wind: 7mph
Humidity: 60%   Direction: 340°NNW
Pressure: 30.37"   Gusts: NA
Location:  38.4744°N, 82.6532°W
Report Text: KDWU 280955Z AUTO 34006KT 10SM OVC045 M01/M08 A3037 RMK AO1
Loading
Personal Weather Stations






























Interactive Weather Map New forecast layout! Learn more

10-Day Weather Forecast

Advertisements
Track Severe Weather on mobile